Time;durP1;ratioP1;P1;durP2;ratioP2;P2;SDS_P1;SDS_P2;PMS_P1;PMS_P2;Temp;Humidity;BMP_temperature;BMP_pressure;BME280_temperature;BME280_humidity;BME280_pressure;Samples;Min_cycle;Max_cycle;Signal;HPM_P1;HPM_P2
2023/07/06 00:01:40;;;;;;;;;;;19.40;59.90;;;;;;5077716;28;20299;-56
2023/07/06 00:04:05;;;;;;;;;;;19.30;59.90;;;;;;5078974;28;19928;-57
2023/07/06 00:06:32;;;;;;;;;;;19.40;59.90;;;;;;5078586;28;19927;-57
2023/07/06 00:08:58;;;;;;;;;;;19.30;59.90;;;;;;5079870;28;20007;-57
2023/07/06 00:11:26;;;;;;;;;;;19.30;59.90;;;;;;5081400;28;20073;-56
2023/07/06 00:13:52;;;;;;;;;;;19.40;60.00;;;;;;5114720;27;20293;-56
2023/07/06 00:16:20;;;;;;;;;;;19.30;59.90;;;;;;5081585;28;19924;-57
2023/07/06 00:18:47;;;;;;;;;;;19.30;59.90;;;;;;5081039;28;19920;-57
2023/07/06 00:21:12;;;;;;;;;;;19.30;60.00;;;;;;5079157;28;19921;-56
2023/07/06 00:23:43;;;;;;;;;;;19.30;60.00;;;;;;5080089;28;19924;-56
2023/07/06 00:26:10;;;;;;;;;;;19.30;60.00;;;;;;5076192;28;20391;-57
2023/07/06 00:28:35;;;;;;;;;;;19.30;59.90;;;;;;5082594;28;19920;-57
2023/07/06 00:31:08;;;;;;;;;;;19.30;60.00;;;;;;5080455;28;20457;-56
2023/07/06 00:33:34;;;;;;;;;;;19.30;60.00;;;;;;5067671;28;20466;-56
2023/07/06 00:35:59;;;;;;;;;;;19.30;60.00;;;;;;5078696;28;19924;-57
2023/07/06 00:38:25;;;;;;;;;;;19.30;60.00;;;;;;5078625;28;19920;-57
2023/07/06 00:40:52;;;;;;;;;;;19.30;60.00;;;;;;5080438;28;20397;-57
2023/07/06 00:43:20;;;;;;;;;;;19.30;60.00;;;;;;5076175;28;19975;-57
2023/07/06 00:45:47;;;;;;;;;;;19.30;60.00;;;;;;5080602;28;19973;-56
2023/07/06 00:48:22;;;;;;;;;;;19.20;59.90;;;;;;5076457;28;20333;-57
2023/07/06 00:50:51;;;;;;;;;;;19.20;60.00;;;;;;5066537;28;20397;-56
2023/07/06 00:53:17;;;;;;;;;;;19.20;60.00;;;;;;5109923;27;19927;-56
2023/07/06 00:55:43;;;;;;;;;;;19.20;60.00;;;;;;5078620;28;19920;-56
2023/07/06 00:58:14;;;;;;;;;;;19.20;60.00;;;;;;5077701;28;19924;-56
2023/07/06 01:00:40;;;;;;;;;;;19.20;60.00;;;;;;5079825;28;19920;-57
2023/07/06 01:03:07;;;;;;;;;;;19.20;60.00;;;;;;5077550;28;20367;-57
2023/07/06 01:05:33;;;;;;;;;;;19.20;60.00;;;;;;5079020;28;19924;-57
2023/07/06 01:08:04;;;;;;;;;;;19.20;60.00;;;;;;5078842;28;19930;-57
2023/07/06 01:10:31;;;;;;;;;;;19.20;60.00;;;;;;5065162;28;20058;-57
2023/07/06 01:12:59;;;;;;;;;;;19.20;60.00;;;;;;5079592;28;19920;-57
2023/07/06 01:15:27;;;;;;;;;;;19.20;60.00;;;;;;5080064;28;20424;-57
2023/07/06 01:18:03;;;;;;;;;;;19.20;60.00;;;;;;5075199;28;20287;-57
2023/07/06 01:20:34;;;;;;;;;;;19.10;60.00;;;;;;5079403;28;19927;-57
2023/07/06 01:25:51;;;;;;;;;;;19.10;60.00;;;;;;5097676;27;20389;-57
2023/07/06 01:33:43;;;;;;;;;;;19.10;60.00;;;;;;5095890;27;20283;-57
2023/07/06 01:36:13;;;;;;;;;;;19.10;60.00;;;;;;5079493;28;19921;-57
2023/07/06 01:38:38;;;;;;;;;;;19.10;60.00;;;;;;5080188;28;20388;-56
2023/07/06 01:41:06;;;;;;;;;;;19.10;60.00;;;;;;5115341;28;19929;-56
2023/07/06 01:43:32;;;;;;;;;;;19.10;60.00;;;;;;5082199;28;19925;-56
2023/07/06 01:45:57;;;;;;;;;;;19.10;60.10;;;;;;5084478;28;20519;-57
2023/07/06 01:48:24;;;;;;;;;;;19.10;60.00;;;;;;5081022;28;20194;-57
2023/07/06 01:51:09;;;;;;;;;;;19.10;60.10;;;;;;5116245;28;20399;-56
2023/07/06 01:53:41;;;;;;;;;;;19.10;60.10;;;;;;5078735;28;20367;-56
2023/07/06 01:56:10;;;;;;;;;;;19.10;60.00;;;;;;5083181;28;20288;-56
2023/07/06 02:01:19;;;;;;;;;;;19.10;60.10;;;;;;5095300;27;19912;-57
2023/07/06 02:03:46;;;;;;;;;;;19.10;60.00;;;;;;5099296;28;19921;-58
2023/07/06 02:06:12;;;;;;;;;;;19.00;60.00;;;;;;5081540;28;19929;-57
2023/07/06 02:08:41;;;;;;;;;;;19.00;60.00;;;;;;5077578;28;20398;-57
2023/07/06 02:11:10;;;;;;;;;;;19.00;60.00;;;;;;5077882;28;19927;-57
2023/07/06 02:13:35;;;;;;;;;;;19.00;60.10;;;;;;5081991;28;19932;-57
2023/07/06 02:16:04;;;;;;;;;;;19.00;60.00;;;;;;5080663;28;19920;-57
2023/07/06 02:18:30;;;;;;;;;;;19.00;60.10;;;;;;5114950;28;20470;-56
2023/07/06 02:20:57;;;;;;;;;;;19.00;60.10;;;;;;5077158;28;20015;-56
2023/07/06 02:23:23;;;;;;;;;;;19.00;60.00;;;;;;5083382;28;19932;-56
2023/07/06 02:25:49;;;;;;;;;;;19.00;60.10;;;;;;5081052;28;19924;-56
2023/07/06 02:28:14;;;;;;;;;;;19.00;60.10;;;;;;5080793;28;20360;-57
2023/07/06 02:30:40;;;;;;;;;;;19.00;60.00;;;;;;5078964;28;19920;-57
2023/07/06 02:33:06;;;;;;;;;;;19.00;60.10;;;;;;5080086;28;20403;-57
2023/07/06 02:35:32;;;;;;;;;;;18.90;60.10;;;;;;5075616;28;19921;-57
2023/07/06 02:37:58;;;;;;;;;;;18.90;60.00;;;;;;5077999;28;19924;-57
2023/07/06 02:40:23;;;;;;;;;;;18.90;60.10;;;;;;5079730;28;19949;-59
2023/07/06 02:42:49;;;;;;;;;;;19.00;60.10;;;;;;5081833;28;20290;-57
2023/07/06 02:45:14;;;;;;;;;;;19.00;60.10;;;;;;5081130;28;19931;-57
2023/07/06 02:47:41;;;;;;;;;;;18.90;60.10;;;;;;5077783;28;20368;-56
2023/07/06 02:50:10;;;;;;;;;;;18.90;60.10;;;;;;5087079;28;19970;-57
2023/07/06 02:52:38;;;;;;;;;;;18.90;60.10;;;;;;5087932;28;19920;-57
2023/07/06 02:55:04;;;;;;;;;;;18.90;60.10;;;;;;5089074;28;19920;-57
2023/07/06 02:57:31;;;;;;;;;;;18.90;60.10;;;;;;5088947;28;19921;-57
2023/07/06 02:59:57;;;;;;;;;;;18.90;60.10;;;;;;5087324;28;20415;-57
2023/07/06 03:02:23;;;;;;;;;;;18.90;60.10;;;;;;5087438;28;19986;-57
2023/07/06 03:04:49;;;;;;;;;;;18.90;60.10;;;;;;5087687;28;19924;-56
2023/07/06 03:07:15;;;;;;;;;;;18.90;60.10;;;;;;5087605;28;19925;-57
2023/07/06 03:09:42;;;;;;;;;;;18.90;60.20;;;;;;5088666;28;20014;-56
2023/07/06 03:12:09;;;;;;;;;;;18.90;60.10;;;;;;5076041;28;19925;-56
2023/07/06 03:14:34;;;;;;;;;;;19.00;60.10;;;;;;5075200;28;19924;-57
2023/07/06 03:17:00;;;;;;;;;;;19.00;60.10;;;;;;5074929;28;20329;-56
2023/07/06 03:19:25;;;;;;;;;;;19.10;60.00;;;;;;5074997;28;20443;-56
2023/07/06 03:21:52;;;;;;;;;;;19.20;59.90;;;;;;5074839;28;20287;-57
2023/07/06 03:24:18;;;;;;;;;;;19.30;59.80;;;;;;5073963;28;19920;-57
2023/07/06 03:26:43;;;;;;;;;;;19.30;59.70;;;;;;5073804;28;19928;-57
2023/07/06 03:29:09;;;;;;;;;;;19.40;59.50;;;;;;5074886;28;19972;-56
2023/07/06 03:31:35;;;;;;;;;;;19.50;59.40;;;;;;5075049;28;19928;-57
2023/07/06 03:34:01;;;;;;;;;;;19.50;59.20;;;;;;5073563;28;20286;-57
2023/07/06 03:36:27;;;;;;;;;;;19.60;59.10;;;;;;5073849;28;19935;-57
2023/07/06 03:38:52;;;;;;;;;;;19.60;59.00;;;;;;5074997;28;20034;-57
2023/07/06 03:41:18;;;;;;;;;;;19.70;58.90;;;;;;5073302;28;19956;-57
2023/07/06 03:43:44;;;;;;;;;;;19.70;58.80;;;;;;5074445;28;19975;-57
2023/07/06 03:46:09;;;;;;;;;;;19.70;58.60;;;;;;5073300;28;19920;-57
2023/07/06 03:48:35;;;;;;;;;;;19.80;58.70;;;;;;5107331;28;20287;-57
2023/07/06 03:51:04;;;;;;;;;;;19.80;58.50;;;;;;5074423;28;19927;-57
2023/07/06 03:53:30;;;;;;;;;;;19.80;58.50;;;;;;5073264;28;20355;-56
2023/07/06 03:55:56;;;;;;;;;;;19.80;58.40;;;;;;5073101;28;19920;-57
2023/07/06 03:58:21;;;;;;;;;;;19.80;58.40;;;;;;5074202;28;19920;-57
2023/07/06 04:00:47;;;;;;;;;;;19.80;58.40;;;;;;5072767;28;19925;-57
2023/07/06 04:03:13;;;;;;;;;;;19.80;58.40;;;;;;5073103;28;19942;-57
2023/07/06 04:05:43;;;;;;;;;;;19.80;58.40;;;;;;5072864;28;20015;-57
2023/07/06 04:08:10;;;;;;;;;;;19.70;58.30;;;;;;5073016;28;19926;-57
2023/07/06 04:10:37;;;;;;;;;;;19.80;58.40;;;;;;5072979;28;20379;-57
2023/07/06 04:13:04;;;;;;;;;;;19.80;58.40;;;;;;5072941;28;19924;-57
2023/07/06 04:15:30;;;;;;;;;;;19.70;58.30;;;;;;5073932;28;20136;-57
2023/07/06 04:17:56;;;;;;;;;;;19.70;58.40;;;;;;5072831;28;19920;-56
2023/07/06 04:20:23;;;;;;;;;;;19.70;58.40;;;;;;5072636;28;20407;-57
2023/07/06 04:22:49;;;;;;;;;;;19.70;58.50;;;;;;5072645;28;20367;-57
2023/07/06 04:25:18;;;;;;;;;;;19.70;58.50;;;;;;5072533;28;19972;-58
2023/07/06 04:27:44;;;;;;;;;;;19.70;58.50;;;;;;5073612;28;20019;-57
2023/07/06 04:30:10;;;;;;;;;;;19.60;58.50;;;;;;5072539;28;20015;-57
2023/07/06 04:32:36;;;;;;;;;;;19.60;58.50;;;;;;5072580;28;19921;-56
2023/07/06 04:35:03;;;;;;;;;;;19.60;58.50;;;;;;5072165;28;20290;-57
2023/07/06 04:37:28;;;;;;;;;;;19.60;58.40;;;;;;5072480;28;19924;-57
2023/07/06 04:39:54;;;;;;;;;;;19.70;58.40;;;;;;5073453;28;20015;-57
2023/07/06 04:42:19;;;;;;;;;;;19.70;58.30;;;;;;5072459;28;19959;-57
2023/07/06 04:44:45;;;;;;;;;;;19.70;58.30;;;;;;5073353;28;19928;-57
2023/07/06 04:47:11;;;;;;;;;;;19.70;58.20;;;;;;5073331;28;19928;-56
2023/07/06 04:49:37;;;;;;;;;;;19.70;58.20;;;;;;5072264;28;19920;-57
2023/07/06 04:52:03;;;;;;;;;;;19.70;58.10;;;;;;5071779;28;19927;-57
2023/07/06 04:54:30;;;;;;;;;;;19.80;58.10;;;;;;5072043;28;19924;-57
2023/07/06 04:56:55;;;;;;;;;;;19.80;58.10;;;;;;5072122;28;20287;-57
2023/07/06 04:59:21;;;;;;;;;;;19.80;58.10;;;;;;5071483;28;19925;-57
2023/07/06 05:01:47;;;;;;;;;;;19.80;58.00;;;;;;5072949;28;20295;-57
2023/07/06 05:04:12;;;;;;;;;;;19.80;58.00;;;;;;5071834;28;20007;-57
2023/07/06 05:06:38;;;;;;;;;;;19.80;58.00;;;;;;5072868;28;19924;-56
2023/07/06 05:09:03;;;;;;;;;;;19.80;58.00;;;;;;5071815;28;19924;-56
2023/07/06 05:11:30;;;;;;;;;;;19.80;57.90;;;;;;5071758;28;19924;-57
2023/07/06 05:13:56;;;;;;;;;;;19.80;57.90;;;;;;5071791;28;19921;-57
2023/07/06 05:16:22;;;;;;;;;;;19.80;58.30;;;;;;5072809;28;20269;-57
2023/07/06 05:18:48;;;;;;;;;;;19.80;57.90;;;;;;5072662;28;19978;-57
2023/07/06 05:21:14;;;;;;;;;;;19.80;57.90;;;;;;5071324;28;19932;-57
2023/07/06 05:23:40;;;;;;;;;;;19.80;57.90;;;;;;5072533;28;19927;-57
2023/07/06 05:26:06;;;;;;;;;;;19.80;57.90;;;;;;5072545;28;19920;-57
2023/07/06 05:28:32;;;;;;;;;;;19.80;58.00;;;;;;5071584;28;19970;-57
2023/07/06 05:30:58;;;;;;;;;;;19.80;57.90;;;;;;5071322;28;19920;-57
2023/07/06 05:33:23;;;;;;;;;;;19.80;57.90;;;;;;5070346;28;19979;-56
2023/07/06 05:35:49;;;;;;;;;;;19.80;58.00;;;;;;5069586;28;20328;-57
2023/07/06 05:38:14;;;;;;;;;;;19.80;58.00;;;;;;5071785;28;20339;-57
2023/07/06 05:40:40;;;;;;;;;;;19.80;58.00;;;;;;5071608;28;19934;-57
2023/07/06 05:43:06;;;;;;;;;;;19.80;58.00;;;;;;5071761;28;19928;-57
2023/07/06 05:45:32;;;;;;;;;;;19.80;57.90;;;;;;5069546;28;19925;-57
2023/07/06 05:47:57;;;;;;;;;;;19.80;58.00;;;;;;5067993;28;19937;-58
2023/07/06 05:50:23;;;;;;;;;;;19.80;58.20;;;;;;5067801;28;20456;-58
2023/07/06 05:52:49;;;;;;;;;;;19.80;58.20;;;;;;5070009;28;19931;-58
2023/07/06 05:55:15;;;;;;;;;;;19.80;58.30;;;;;;5068154;28;20564;-58
2023/07/06 05:57:41;;;;;;;;;;;19.80;58.50;;;;;;5065849;28;19931;-58
2023/07/06 06:00:09;;;;;;;;;;;19.80;59.30;;;;;;5100937;28;19924;-58
2023/07/06 06:02:35;;;;;;;;;;;19.80;59.70;;;;;;5060828;28;19921;-58
2023/07/06 06:05:01;;;;;;;;;;;19.80;59.80;;;;;;5076645;28;19928;-57
2023/07/06 06:07:26;;;;;;;;;;;19.80;60.10;;;;;;5063390;28;20417;-58
2023/07/06 06:09:52;;;;;;;;;;;19.80;60.50;;;;;;5053746;28;20430;-58
2023/07/06 06:12:18;;;;;;;;;;;19.80;60.80;;;;;;5058330;28;19956;-58
2023/07/06 06:14:44;;;;;;;;;;;19.80;60.90;;;;;;5033634;28;19978;-57
2023/07/06 06:17:10;;;;;;;;;;;19.80;61.20;;;;;;5057427;28;19970;-57
2023/07/06 06:19:37;;;;;;;;;;;19.80;60.80;;;;;;5056415;28;20342;-58
2023/07/06 06:22:04;;;;;;;;;;;19.80;61.40;;;;;;5090928;28;19975;-57
2023/07/06 06:24:29;;;;;;;;;;;19.80;61.50;;;;;;5057363;28;20446;-57
2023/07/06 06:26:55;;;;;;;;;;;19.80;61.20;;;;;;5050290;28;19964;-60
2023/07/06 06:29:20;;;;;;;;;;;19.80;61.20;;;;;;5052772;28;19976;-58
2023/07/06 06:31:46;;;;;;;;;;;19.80;61.10;;;;;;5086784;28;19968;-57
2023/07/06 06:34:11;;;;;;;;;;;19.80;61.00;;;;;;5053117;28;20430;-58
2023/07/06 06:36:37;;;;;;;;;;;19.80;61.00;;;;;;5054548;28;19924;-58
2023/07/06 06:39:04;;;;;;;;;;;19.80;61.00;;;;;;5049806;28;19920;-58
2023/07/06 06:41:29;;;;;;;;;;;19.80;61.00;;;;;;5055216;28;19950;-57
2023/07/06 06:43:56;;;;;;;;;;;19.90;61.10;;;;;;5089392;28;20011;-58
2023/07/06 06:46:23;;;;;;;;;;;19.80;61.10;;;;;;5054610;28;19927;-58
2023/07/06 06:48:49;;;;;;;;;;;19.80;61.00;;;;;;5053199;28;19924;-58
2023/07/06 06:51:14;;;;;;;;;;;19.80;61.30;;;;;;5056053;28;19935;-58
2023/07/06 06:53:40;;;;;;;;;;;19.80;61.30;;;;;;5054059;28;20307;-58
2023/07/06 06:56:06;;;;;;;;;;;19.80;61.40;;;;;;5057358;28;19979;-57
2023/07/06 06:58:32;;;;;;;;;;;19.80;61.80;;;;;;5052832;28;20433;-59
2023/07/06 07:00:58;;;;;;;;;;;19.80;61.90;;;;;;5053313;28;19941;-57
2023/07/06 07:03:27;;;;;;;;;;;19.80;62.00;;;;;;5060647;28;19960;-57
2023/07/06 07:06:01;;;;;;;;;;;19.90;62.20;;;;;;5060486;28;19928;-58
2023/07/06 07:08:28;;;;;;;;;;;19.90;62.40;;;;;;5055866;28;19928;-57
2023/07/06 07:10:55;;;;;;;;;;;19.90;62.50;;;;;;5055393;28;19985;-58
2023/07/06 07:13:21;;;;;;;;;;;19.90;62.50;;;;;;5056510;28;19935;-60
2023/07/06 07:15:46;;;;;;;;;;;19.90;62.50;;;;;;5058332;28;19924;-59
2023/07/06 07:18:12;;;;;;;;;;;19.90;62.60;;;;;;5061858;28;20325;-58
2023/07/06 07:20:37;;;;;;;;;;;19.90;62.50;;;;;;5059915;28;19933;-58
2023/07/06 07:23:05;;;;;;;;;;;19.90;62.20;;;;;;5061388;28;19920;-58
2023/07/06 07:25:30;;;;;;;;;;;19.90;62.40;;;;;;5049563;28;19931;-58
2023/07/06 07:27:56;;;;;;;;;;;19.90;63.10;;;;;;5057209;28;19930;-59
2023/07/06 07:30:21;;;;;;;;;;;19.90;62.30;;;;;;5056885;28;19925;-58
2023/07/06 07:32:47;;;;;;;;;;;19.90;62.50;;;;;;5053489;28;19924;-58
2023/07/06 07:35:13;;;;;;;;;;;19.90;62.70;;;;;;5054869;28;20494;-58
2023/07/06 07:37:38;;;;;;;;;;;19.90;63.30;;;;;;5056623;28;19936;-59
2023/07/06 07:40:05;;;;;;;;;;;19.90;63.70;;;;;;5057404;28;19928;-59
2023/07/06 07:42:30;;;;;;;;;;;19.90;64.20;;;;;;5055479;28;20046;-58
2023/07/06 07:44:57;;;;;;;;;;;19.90;64.00;;;;;;5057532;28;20051;-58
2023/07/06 07:47:24;;;;;;;;;;;19.90;64.80;;;;;;5054102;28;19931;-58
2023/07/06 07:49:49;;;;;;;;;;;19.90;65.30;;;;;;5054725;28;19921;-58
2023/07/06 07:52:15;;;;;;;;;;;19.90;65.50;;;;;;5053479;28;19924;-58
2023/07/06 07:54:42;;;;;;;;;;;20.00;65.80;;;;;;5055166;28;19940;-58
2023/07/06 07:57:07;;;;;;;;;;;20.00;65.90;;;;;;5057205;28;20605;-59
2023/07/06 07:59:33;;;;;;;;;;;20.00;65.70;;;;;;5063009;28;19961;-58
2023/07/06 08:01:59;;;;;;;;;;;20.00;65.60;;;;;;5062206;28;19959;-58
2023/07/06 08:04:24;;;;;;;;;;;20.00;65.40;;;;;;5060441;28;19963;-58
2023/07/06 08:06:50;;;;;;;;;;;19.90;65.40;;;;;;5076937;28;19974;-59
2023/07/06 08:09:17;;;;;;;;;;;20.00;65.40;;;;;;5056710;28;19924;-59
2023/07/06 08:11:46;;;;;;;;;;;20.00;66.40;;;;;;5056203;28;19928;-58
2023/07/06 08:14:13;;;;;;;;;;;20.00;65.40;;;;;;5052146;28;19947;-58
2023/07/06 08:16:40;;;;;;;;;;;20.00;65.40;;;;;;5078080;28;20462;-58
2023/07/06 08:19:07;;;;;;;;;;;20.00;65.70;;;;;;5077600;28;20095;-59
2023/07/06 08:21:32;;;;;;;;;;;20.00;65.50;;;;;;5056172;28;20035;-58
2023/07/06 08:23:58;;;;;;;;;;;20.00;65.40;;;;;;5074273;28;20103;-58
2023/07/06 08:26:25;;;;;;;;;;;19.90;65.20;;;;;;5070628;28;19925;-59
2023/07/06 08:28:51;;;;;;;;;;;20.00;65.20;;;;;;5057315;28;19928;-60
2023/07/06 08:31:18;;;;;;;;;;;20.00;65.00;;;;;;5057727;28;19943;-58
2023/07/06 08:33:46;;;;;;;;;;;20.00;65.00;;;;;;5074210;28;20448;-58
2023/07/06 08:36:12;;;;;;;;;;;20.00;65.10;;;;;;5073683;28;19924;-58
2023/07/06 08:38:38;;;;;;;;;;;20.10;65.30;;;;;;5055584;28;19933;-58
2023/07/06 08:41:14;;;;;;;;;;;20.10;65.50;;;;;;5057130;28;19979;-58
2023/07/06 08:43:41;;;;;;;;;;;20.10;65.40;;;;;;5086552;28;19947;-59
2023/07/06 08:46:09;;;;;;;;;;;20.10;65.30;;;;;;5071163;28;20057;-58
2023/07/06 08:48:36;;;;;;;;;;;20.20;65.20;;;;;;5086319;28;19931;-58
2023/07/06 08:51:05;;;;;;;;;;;20.20;65.00;;;;;;5047835;28;20418;-58
2023/07/06 08:53:32;;;;;;;;;;;20.20;64.80;;;;;;5050814;28;19973;-58
2023/07/06 08:56:00;;;;;;;;;;;20.20;64.60;;;;;;5051036;28;20174;-58
2023/07/06 08:58:28;;;;;;;;;;;20.30;64.60;;;;;;5048915;28;20019;-58
2023/07/06 09:00:57;;;;;;;;;;;20.30;64.40;;;;;;5069870;28;20465;-59
2023/07/06 09:03:33;;;;;;;;;;;20.30;64.20;;;;;;5068227;28;20367;-58
2023/07/06 09:05:59;;;;;;;;;;;20.30;64.10;;;;;;5069781;28;19928;-59
2023/07/06 09:08:25;;;;;;;;;;;20.30;64.00;;;;;;5066771;28;20013;-58
2023/07/06 09:10:51;;;;;;;;;;;20.30;63.90;;;;;;5051076;28;19924;-58
2023/07/06 09:13:22;;;;;;;;;;;20.30;63.80;;;;;;5049648;28;19928;-59
2023/07/06 09:15:54;;;;;;;;;;;20.30;63.70;;;;;;5057727;28;19924;-58
2023/07/06 09:18:20;;;;;;;;;;;20.30;63.70;;;;;;5048896;28;19932;-58
2023/07/06 09:20:46;;;;;;;;;;;20.30;63.60;;;;;;5081886;28;19935;-58
2023/07/06 09:23:14;;;;;;;;;;;20.30;63.50;;;;;;5072207;28;19951;-59
2023/07/06 09:25:44;;;;;;;;;;;20.30;63.40;;;;;;5065579;28;20453;-58
2023/07/06 09:28:15;;;;;;;;;;;20.30;63.30;;;;;;5085045;28;19946;-59
2023/07/06 09:30:42;;;;;;;;;;;20.30;64.00;;;;;;5049145;28;19994;-59
2023/07/06 09:33:24;;;;;;;;;;;20.40;63.70;;;;;;5088752;28;19946;-59
2023/07/06 09:35:52;;;;;;;;;;;20.40;63.80;;;;;;5072534;28;20405;-59
2023/07/06 09:38:19;;;;;;;;;;;20.50;63.60;;;;;;5087492;28;20012;-58
2023/07/06 09:40:46;;;;;;;;;;;20.50;64.30;;;;;;5054609;28;19924;-59
2023/07/06 09:46:01;;;;;;;;;;;20.60;63.40;;;;;;5055687;28;19921;-57
2023/07/06 09:51:12;;;;;;;;;;;20.70;63.00;;;;;;5066343;27;19920;-58
2023/07/06 09:53:43;;;;;;;;;;;20.70;63.00;;;;;;5064087;28;19991;-58
2023/07/06 09:56:10;;;;;;;;;;;20.70;63.10;;;;;;5067965;28;20059;-58
2023/07/06 09:58:36;;;;;;;;;;;20.80;63.10;;;;;;5067288;28;19925;-57
2023/07/06 10:01:22;;;;;;;;;;;20.80;63.20;;;;;;5069842;28;19931;-57
2023/07/06 10:03:55;;;;;;;;;;;20.80;63.10;;;;;;5069820;28;20112;-56
2023/07/06 10:09:08;;;;;;;;;;;20.80;63.30;;;;;;5067637;27;20146;-57
2023/07/06 10:11:42;;;;;;;;;;;20.80;63.20;;;;;;5048261;28;20062;-57
2023/07/06 10:14:13;;;;;;;;;;;20.80;63.10;;;;;;5050349;28;19920;-57
2023/07/06 10:16:44;;;;;;;;;;;20.90;63.10;;;;;;5049837;28;20356;-56
2023/07/06 10:19:15;;;;;;;;;;;20.90;63.00;;;;;;5057572;28;19928;-57
2023/07/06 10:21:46;;;;;;;;;;;20.90;62.80;;;;;;5048837;28;20038;-56
2023/07/06 10:26:55;;;;;;;;;;;20.90;62.70;;;;;;5081921;27;19924;-57
2023/07/06 10:29:25;;;;;;;;;;;21.00;62.20;;;;;;5069914;28;19929;-57
2023/07/06 10:31:55;;;;;;;;;;;21.00;61.90;;;;;;5067813;28;20283;-57
2023/07/06 10:37:04;;;;;;;;;;;21.00;61.50;;;;;;5077476;27;19927;-57
2023/07/06 10:42:21;;;;;;;;;;;21.00;60.90;;;;;;5080937;27;19920;-58
2023/07/06 10:44:50;;;;;;;;;;;21.00;60.70;;;;;;5081380;28;19925;-57
2023/07/06 10:47:36;;;;;;;;;;;21.00;60.80;;;;;;5053359;28;19932;-57
2023/07/06 10:52:57;;;;;;;;;;;21.00;61.10;;;;;;5087377;27;19920;-58
2023/07/06 10:55:23;;;;;;;;;;;21.00;61.20;;;;;;5048830;28;20920;-58
2023/07/06 10:57:51;;;;;;;;;;;21.00;61.60;;;;;;5052992;28;19930;-58
2023/07/06 11:00:18;;;;;;;;;;;21.00;61.70;;;;;;5049650;28;19924;-58
2023/07/06 11:02:45;;;;;;;;;;;21.00;61.90;;;;;;5069061;28;19994;-57
2023/07/06 11:05:19;;;;;;;;;;;21.00;62.10;;;;;;5054943;28;20361;-58
2023/07/06 11:10:33;;;;;;;;;;;21.10;62.40;;;;;;5087266;27;19920;-57
2023/07/06 11:18:44;;;;;;;;;;;21.10;62.20;;;;;;5064847;28;20777;-57
2023/07/06 11:24:02;;;;;;;;;;;21.20;62.10;;;;;;5067480;27;19960;-59
2023/07/06 11:26:47;;;;;;;;;;;21.20;62.00;;;;;;5093592;28;19939;-59
2023/07/06 11:29:13;;;;;;;;;;;21.20;62.00;;;;;;5068415;28;19939;-59
2023/07/06 11:31:59;;;;;;;;;;;21.20;61.90;;;;;;5067387;28;19929;-58
2023/07/06 11:34:30;;;;;;;;;;;21.20;62.10;;;;;;5065524;28;19920;-58
2023/07/06 11:37:00;;;;;;;;;;;21.30;62.00;;;;;;5064810;28;19931;-58
2023/07/06 11:39:31;;;;;;;;;;;21.20;61.80;;;;;;5065267;28;19931;-58
2023/07/06 11:41:58;;;;;;;;;;;21.20;61.80;;;;;;5067711;28;19924;-58
2023/07/06 11:47:38;;;;;;;;;;;21.20;61.90;;;;;;5067052;28;19935;-58
2023/07/06 11:50:08;;;;;;;;;;;21.30;61.70;;;;;;5061450;28;19929;-58
2023/07/06 11:52:36;;;;;;;;;;;21.20;61.50;;;;;;5061769;28;20710;-57
2023/07/06 11:55:28;;;;;;;;;;;21.20;61.50;;;;;;5082092;28;19925;-57
2023/07/06 12:00:48;;;;;;;;;;;21.20;61.70;;;;;;5084090;27;20144;-57
2023/07/06 12:03:14;;;;;;;;;;;21.20;61.60;;;;;;5085016;28;19975;-57
2023/07/06 12:05:44;;;;;;;;;;;21.30;61.50;;;;;;5085012;28;20003;-58
2023/07/06 12:08:19;;;;;;;;;;;21.30;61.40;;;;;;5086509;28;20462;-58
2023/07/06 12:10:48;;;;;;;;;;;21.30;61.10;;;;;;5115965;27;21334;-58
2023/07/06 12:13:18;;;;;;;;;;;21.40;61.10;;;;;;5084746;28;20597;-58
2023/07/06 12:15:47;;;;;;;;;;;21.40;60.80;;;;;;5113779;27;19928;-58
2023/07/06 12:18:14;;;;;;;;;;;21.40;60.60;;;;;;5078376;28;19920;-59
2023/07/06 12:20:39;;;;;;;;;;;21.40;60.40;;;;;;5082834;28;20311;-58
2023/07/06 12:23:10;;;;;;;;;;;21.40;60.20;;;;;;5083370;28;19920;-59
2023/07/06 12:25:35;;;;;;;;;;;21.40;60.30;;;;;;5081515;28;19938;-58
2023/07/06 12:28:01;;;;;;;;;;;21.40;60.20;;;;;;5086254;28;19924;-58
2023/07/06 12:30:30;;;;;;;;;;;21.40;60.20;;;;;;5084756;28;19947;-59
2023/07/06 12:32:56;;;;;;;;;;;21.40;60.30;;;;;;5084728;28;19925;-58
2023/07/06 12:35:22;;;;;;;;;;;21.40;60.40;;;;;;5083006;28;19996;-59
2023/07/06 12:37:47;;;;;;;;;;;21.30;60.30;;;;;;5084391;28;19924;-58
2023/07/06 12:40:17;;;;;;;;;;;21.40;60.40;;;;;;5083221;28;20704;-59
2023/07/06 12:42:43;;;;;;;;;;;21.40;60.50;;;;;;5085985;28;19923;-59
2023/07/06 12:45:09;;;;;;;;;;;21.40;60.40;;;;;;5086540;28;19985;-60
2023/07/06 12:47:37;;;;;;;;;;;21.30;60.30;;;;;;5083094;28;19928;-59
2023/07/06 12:50:05;;;;;;;;;;;21.30;60.20;;;;;;5085441;28;20279;-59
2023/07/06 12:52:32;;;;;;;;;;;21.30;60.20;;;;;;5087391;28;20011;-59
2023/07/06 12:54:57;;;;;;;;;;;21.30;60.20;;;;;;5089137;28;20011;-60
2023/07/06 12:57:25;;;;;;;;;;;21.30;60.20;;;;;;5080160;28;19924;-58
2023/07/06 12:59:54;;;;;;;;;;;21.30;60.40;;;;;;5082746;28;20004;-59
2023/07/06 13:02:21;;;;;;;;;;;21.30;60.40;;;;;;5082783;28;19960;-59
2023/07/06 13:04:48;;;;;;;;;;;21.40;60.60;;;;;;5085578;28;19924;-60
2023/07/06 13:07:15;;;;;;;;;;;21.30;60.40;;;;;;5088979;28;19920;-60
2023/07/06 13:09:41;;;;;;;;;;;21.30;60.40;;;;;;5091302;28;19920;-59
2023/07/06 13:12:09;;;;;;;;;;;21.40;60.40;;;;;;5081021;28;19993;-60
2023/07/06 13:14:38;;;;;;;;;;;21.40;61.00;;;;;;5080249;28;20011;-59
2023/07/06 13:17:05;;;;;;;;;;;21.40;60.10;;;;;;5102761;27;19935;-59
2023/07/06 13:19:33;;;;;;;;;;;21.40;60.00;;;;;;5083423;28;20018;-59
2023/07/06 13:21:58;;;;;;;;;;;21.40;60.00;;;;;;5084661;28;19927;-59
2023/07/06 13:24:24;;;;;;;;;;;21.40;59.80;;;;;;5084317;28;19932;-59
2023/07/06 13:26:51;;;;;;;;;;;21.40;59.90;;;;;;5086987;28;19928;-60
2023/07/06 13:29:17;;;;;;;;;;;21.40;59.90;;;;;;5080778;28;19928;-60
2023/07/06 13:31:43;;;;;;;;;;;21.40;59.90;;;;;;5108944;27;20363;-59
2023/07/06 13:34:09;;;;;;;;;;;21.40;59.90;;;;;;5084847;28;19923;-60
2023/07/06 13:36:35;;;;;;;;;;;21.40;59.80;;;;;;5081618;28;19967;-61
2023/07/06 13:39:06;;;;;;;;;;;21.40;59.90;;;;;;5082190;28;20122;-61
2023/07/06 13:41:34;;;;;;;;;;;21.40;59.80;;;;;;5071490;28;20450;-61
2023/07/06 13:44:00;;;;;;;;;;;21.40;59.90;;;;;;5068957;28;19929;-59
2023/07/06 13:46:26;;;;;;;;;;;21.40;59.80;;;;;;5068013;28;20298;-59
2023/07/06 13:48:52;;;;;;;;;;;21.40;59.70;;;;;;5072366;28;19920;-59
2023/07/06 13:51:18;;;;;;;;;;;21.40;59.70;;;;;;5077732;28;20427;-59
2023/07/06 13:53:47;;;;;;;;;;;21.40;59.70;;;;;;5075180;28;19924;-59
2023/07/06 13:56:13;;;;;;;;;;;21.40;59.60;;;;;;5073058;28;19924;-58
2023/07/06 13:58:41;;;;;;;;;;;21.40;59.70;;;;;;5073667;28;20038;-62
2023/07/06 14:01:08;;;;;;;;;;;21.40;59.70;;;;;;5071872;28;20035;-59
2023/07/06 14:03:34;;;;;;;;;;;21.40;59.70;;;;;;5101250;27;19931;-59
2023/07/06 14:06:01;;;;;;;;;;;21.30;59.70;;;;;;5073920;28;19967;-59
2023/07/06 14:08:27;;;;;;;;;;;21.30;59.60;;;;;;5072246;28;20410;-59
2023/07/06 14:10:53;;;;;;;;;;;21.30;59.60;;;;;;5070577;28;19974;-59
2023/07/06 14:13:21;;;;;;;;;;;21.30;59.70;;;;;;5073880;28;19921;-59
2023/07/06 14:15:47;;;;;;;;;;;21.30;59.70;;;;;;5068766;28;19935;-59
2023/07/06 14:18:13;;;;;;;;;;;21.30;59.70;;;;;;5071183;28;19920;-59
2023/07/06 14:20:40;;;;;;;;;;;21.30;59.70;;;;;;5074941;28;20011;-59
2023/07/06 14:23:06;;;;;;;;;;;21.30;59.70;;;;;;5069496;28;19967;-59
2023/07/06 14:25:33;;;;;;;;;;;21.30;59.70;;;;;;5071353;28;19967;-59
2023/07/06 14:27:59;;;;;;;;;;;21.30;59.60;;;;;;5074391;28;19981;-59
2023/07/06 14:30:27;;;;;;;;;;;21.30;59.70;;;;;;5076743;28;20403;-59
2023/07/06 14:32:52;;;;;;;;;;;21.30;59.70;;;;;;5071910;28;19920;-59
2023/07/06 14:35:18;;;;;;;;;;;21.30;59.70;;;;;;5071899;28;19993;-59
2023/07/06 14:37:44;;;;;;;;;;;21.30;59.60;;;;;;5073578;28;19935;-59
2023/07/06 14:40:11;;;;;;;;;;;21.30;59.60;;;;;;5072273;28;19935;-59
2023/07/06 14:42:37;;;;;;;;;;;21.30;59.60;;;;;;5077244;28;20036;-59
2023/07/06 14:45:06;;;;;;;;;;;21.30;59.60;;;;;;5073846;28;19995;-59
2023/07/06 14:47:33;;;;;;;;;;;21.30;59.60;;;;;;5074661;28;20444;-59
2023/07/06 14:49:59;;;;;;;;;;;21.30;59.60;;;;;;5099795;27;19924;-59
2023/07/06 14:52:25;;;;;;;;;;;21.30;59.60;;;;;;5069055;28;19928;-59
2023/07/06 14:54:53;;;;;;;;;;;21.30;59.60;;;;;;5076639;28;19927;-60
2023/07/06 14:57:19;;;;;;;;;;;21.30;59.50;;;;;;5070770;28;20410;-59
2023/07/06 14:59:45;;;;;;;;;;;21.30;59.60;;;;;;5087232;28;19924;-59
2023/07/06 15:02:12;;;;;;;;;;;21.20;59.50;;;;;;5087832;28;19920;-59
2023/07/06 15:04:38;;;;;;;;;;;21.20;59.50;;;;;;5088589;28;19920;-59